Capitol Hill, Washington
Current Conditions -  °F | °C
As of 6:53 PM on Sunday 21 Dec 2014 (Local Time) from KBFI Reporting Station
Broken Clouds Broken Clouds  
Wind Chill: 53°   Ceiling: 12000
Heat Index: 53°   Visibility: 10mi
Dew Point: 45°   Wind: 7mph
Humidity: 74%   Direction: 150°SSE
Pressure: 30.07"   Gusts: NA
Location:  47.6341°N, 122.322°W
Report Text: KBFI 220253Z 15006KT 10SM SCT020 BKN120 12/07 A3007 RMK AO2 SLP183 T01170072 51023
Loading
Personal Weather Stations






























Interactive Weather Map New forecast layout! Learn more

10-Day Weather Forecast

Advertisements
Track Severe Weather on mobile